Time;durP1;ratioP1;P1;durP2;ratioP2;P2;SDS_P1;SDS_P2;PMS_P1;PMS_P2;Temp;Humidity;BMP_temperature;BMP_pressure;BME280_temperature;BME280_humidity;BME280_pressure;Samples;Min_cycle;Max_cycle;Signal;HPM_P1;HPM_P2
2023/07/28 00:04:02;;;;;;;0.60;0.30;;;;;;;18.15;100.00;153258.47;10465000;28;20491;-73
2023/07/28 00:09:04;;;;;;;0.75;0.30;;;;;;;18.18;100.00;153264.94;10464743;28;20049;-72
2023/07/28 00:14:06;;;;;;;1.15;0.30;;;;;;;18.19;100.00;153266.25;10465175;28;20055;-72
2023/07/28 00:19:07;;;;;;;2.88;0.47;;;;;;;18.24;100.00;153280.56;10465043;28;20091;-72
2023/07/28 00:24:09;;;;;;;0.98;0.45;;;;;;;18.27;100.00;153287.00;10464544;28;20127;-72
2023/07/28 00:29:11;;;;;;;0.40;0.38;;;;;;;18.26;100.00;153285.72;10465209;28;20111;-73
2023/07/28 00:34:13;;;;;;;1.55;0.50;;;;;;;18.40;100.00;153322.06;10446032;28;20083;-72
2023/07/28 00:39:14;;;;;;;0.80;0.40;;;;;;;18.24;100.00;153279.22;10464436;28;20049;-73
2023/07/28 00:44:17;;;;;;;1.23;0.50;;;;;;;18.37;100.00;153312.97;10464914;28;20493;-73
2023/07/28 00:49:19;;;;;;;1.33;0.50;;;;;;;18.30;100.00;153294.81;10464067;28;20072;-73
2023/07/28 00:54:20;;;;;;;0.60;0.60;;;;;;;18.47;100.00;153338.97;10446334;28;20531;-72
2023/07/28 00:59:22;;;;;;;0.73;0.73;;;;;;;18.33;100.00;153302.63;10445433;28;20049;-72
2023/07/28 01:04:24;;;;;;;0.88;0.60;;;;;;;18.38;100.00;153315.59;10463328;28;20041;-72
2023/07/28 01:09:34;;;;;;;1.63;0.80;;;;;;;18.50;100.00;153346.72;10463986;28;20542;-72
2023/07/28 01:14:36;;;;;;;2.38;0.80;;;;;;;18.44;100.00;153331.16;10444216;28;20041;-72
2023/07/28 01:19:37;;;;;;;2.05;0.70;;;;;;;18.49;100.00;153344.16;10463047;28;20525;-72
2023/07/28 01:24:55;;;;;;;1.42;0.63;;;;;;;18.54;100.00;153355.81;10444860;28;20499;-73
2023/07/28 01:29:57;;;;;;;1.63;0.75;;;;;;;18.58;100.00;153366.22;10463587;28;20090;-71
2023/07/28 01:34:59;;;;;;;4.03;1.00;;;;;;;18.43;100.00;153328.56;10463116;28;20073;-72
2023/07/28 01:40:02;;;;;;;0.85;0.85;;;;;;;18.30;100.00;153296.13;10463754;28;20068;-71
2023/07/28 01:45:04;;;;;;;0.93;0.85;;;;;;;18.09;100.00;153242.88;10444788;28;20049;-72
2023/07/28 01:50:06;;;;;;;2.65;1.00;;;;;;;17.97;100.00;153210.41;10461557;28;20053;-70
2023/07/28 01:55:08;;;;;;;2.25;1.10;;;;;;;17.93;100.00;153200.03;10442967;28;20075;-71
2023/07/28 02:00:10;;;;;;;1.85;1.15;;;;;;;17.86;100.00;153184.47;10461670;28;20051;-71
2023/07/28 02:05:15;;;;;;;1.33;1.00;;;;;;;17.88;100.00;153189.69;10461109;28;20045;-72
2023/07/28 02:10:16;;;;;;;2.65;1.02;;;;;;;17.74;100.00;153153.31;10460216;28;20075;-72
2023/07/28 02:15:18;;;;;;;1.00;0.70;;;;;;;17.70;100.00;153141.56;10442063;28;20127;-72
2023/07/28 02:20:20;;;;;;;1.15;0.90;;;;;;;17.78;100.00;153162.41;10442186;28;20521;-72
2023/07/28 02:25:22;;;;;;;0.63;0.57;;;;;;;17.77;100.00;153161.09;10441157;28;20128;-72
2023/07/28 02:30:24;;;;;;;1.50;0.80;;;;;;;17.74;100.00;153153.31;10460311;28;20455;-72
2023/07/28 02:35:25;;;;;;;2.35;1.30;;;;;;;17.73;100.00;153149.38;10459868;28;20412;-72
2023/07/28 02:40:27;;;;;;;0.90;0.80;;;;;;;17.68;100.00;153137.69;10458714;28;20047;-71
2023/07/28 02:45:29;;;;;;;2.47;0.80;;;;;;;17.69;100.00;153140.28;10458579;28;20107;-72
2023/07/28 02:50:31;;;;;;;1.00;0.63;;;;;;;17.56;100.00;153106.53;10458334;28;20045;-73
2023/07/28 02:55:32;;;;;;;0.60;0.60;;;;;;;17.69;100.00;153140.28;10424006;28;20045;-73
2023/07/28 03:00:39;;;;;;;1.10;0.43;;;;;;;17.64;100.00;153127.31;10440068;28;20052;-72
2023/07/28 03:05:42;;;;;;;;;;;;;;;17.65;100.00;153129.91;10440287;28;20064;-72
2023/07/28 03:11:02;;;;;;;0.40;0.40;;;;;;;17.66;100.00;153132.47;10459776;28;19920;-71
2023/07/28 03:16:04;;;;;;;0.80;0.50;;;;;;;17.64;100.00;153127.31;10440208;28;20529;-72
2023/07/28 03:21:06;;;;;;;0.40;0.40;;;;;;;17.71;100.00;153145.50;10440269;28;20051;-72
2023/07/28 03:26:08;;;;;;;0.40;0.40;;;;;;;17.64;100.00;153127.31;10458543;28;20053;-72
2023/07/28 03:31:09;;;;;;;0.30;0.30;;;;;;;17.56;100.00;153106.53;10458436;28;20064;-72
2023/07/28 03:36:11;;;;;;;1.08;0.43;;;;;;;17.76;100.00;153157.22;10457020;28;20041;-73
2023/07/28 03:41:13;;;;;;;0.82;0.38;;;;;;;17.72;100.00;153148.09;10439530;28;20053;-72
2023/07/28 03:46:15;;;;;;;1.08;0.50;;;;;;;17.73;100.00;153150.66;10438618;28;20049;-73
2023/07/28 03:51:18;;;;;;;0.30;0.30;;;;;;;17.64;100.00;153127.31;10438213;28;20045;-72
2023/07/28 03:56:19;;;;;;;1.10;0.40;;;;;;;17.73;100.00;153149.38;10439599;28;20490;-73
2023/07/28 04:01:22;;;;;;;0.40;0.40;;;;;;;17.71;100.00;153144.16;10458110;28;20037;-73
2023/07/28 04:06:45;;;;;;;1.48;0.40;;;;;;;17.81;100.00;153170.19;10458881;28;20103;-72
2023/07/28 04:11:47;;;;;;;0.45;0.40;;;;;;;17.85;100.00;153180.59;10440969;28;20510;-72
2023/07/28 04:16:49;;;;;;;0.50;0.50;;;;;;;17.81;100.00;153170.19;10440697;28;20051;-71
2023/07/28 04:21:51;;;;;;;0.50;0.50;;;;;;;17.89;100.00;153192.28;10457698;28;20053;-73
2023/07/28 04:26:53;;;;;;;0.40;0.40;;;;;;;17.84;100.00;153179.31;10440103;28;20451;-72
2023/07/28 04:31:55;;;;;;;0.40;0.32;;;;;;;17.94;100.00;153202.66;10458352;28;20123;-72
2023/07/28 04:37:06;;;;;;;0.30;0.30;;;;;;;17.90;100.00;153193.56;10437691;28;20049;-72
2023/07/28 04:42:19;;;;;;;0.50;0.50;;;;;;;18.09;100.00;153241.56;10438138;28;20082;-71
2023/07/28 04:47:22;;;;;;;0.43;0.43;;;;;;;18.15;100.00;153257.19;10439956;28;20041;-72
2023/07/28 04:52:24;;;;;;;0.47;0.47;;;;;;;18.08;100.00;153240.28;10445555;28;20507;-72
2023/07/28 04:57:25;;;;;;;0.40;0.40;;;;;;;18.10;100.00;153244.16;10463649;28;20072;-72
2023/07/28 05:02:27;;;;;;;0.30;0.30;;;;;;;18.27;100.00;153288.31;10444555;28;20090;-72
2023/07/28 05:07:29;;;;;;;0.40;0.40;;;;;;;18.31;100.00;153297.41;10463011;28;20045;-72
2023/07/28 05:12:31;;;;;;;0.40;0.40;;;;;;;18.28;100.00;153290.94;10444373;28;20045;-72
2023/07/28 05:17:32;;;;;;;0.30;0.30;;;;;;;18.50;100.00;153346.72;10461856;28;20047;-72
2023/07/28 05:22:53;;;;;;;0.47;0.40;;;;;;;18.41;100.00;153324.66;10444586;28;20055;-73
2023/07/28 05:27:57;;;;;;;0.82;0.40;;;;;;;18.59;100.00;153368.81;10444836;28;20053;-72
2023/07/28 05:33:00;;;;;;;0.60;0.40;;;;;;;18.58;100.00;153366.22;10444892;28;20094;-72
2023/07/28 05:38:09;;;;;;;0.43;0.43;;;;;;;18.63;100.00;153380.50;10461450;28;20083;-73
2023/07/28 05:43:11;;;;;;;0.40;0.40;;;;;;;18.60;100.00;153371.44;10443228;28;20051;-73
2023/07/28 05:48:13;;;;;;;2.10;0.40;;;;;;;18.72;100.00;153402.63;10442701;28;20041;-73
2023/07/28 05:53:15;;;;;;;0.25;0.25;;;;;;;18.70;100.00;153397.44;10442926;28;20048;-73
2023/07/28 05:58:17;;;;;;;0.52;0.30;;;;;;;18.84;100.00;153432.50;10442455;28;20052;-74
2023/07/28 06:03:19;;;;;;;0.30;0.30;;;;;;;18.93;100.00;153455.88;10442395;28;20045;-73
2023/07/28 06:08:34;;;;;;;0.65;0.30;;;;;;;18.92;100.00;153453.31;10442721;28;20056;-73
2023/07/28 06:13:35;;;;;;;0.50;0.30;;;;;;;19.02;100.00;153479.25;10442125;28;20484;-74
2023/07/28 06:18:37;;;;;;;0.40;0.40;;;;;;;18.97;100.00;153466.28;10441760;28;20045;-73
2023/07/28 06:23:45;;;;;;;0.40;0.40;;;;;;;19.00;100.00;153472.78;10441500;28;20055;-73
2023/07/28 06:28:47;;;;;;;0.70;0.40;;;;;;;18.98;100.00;153468.88;10459650;28;20453;-74
2023/07/28 06:33:49;;;;;;;0.60;0.30;;;;;;;19.12;100.00;153503.94;10452277;28;20044;-74
2023/07/28 06:38:52;;;;;;;0.40;0.30;;;;;;;19.17;100.00;153516.97;10519772;28;20493;-74
2023/07/28 06:43:54;;;;;;;0.20;0.17;;;;;;;19.50;99.00;153600.09;10524133;28;20071;-74
2023/07/28 06:48:56;;;;;;;0.65;0.38;;;;;;;19.49;99.94;153598.81;10524965;28;20494;-73
2023/07/28 06:53:58;;;;;;;1.50;0.30;;;;;;;19.65;98.36;153639.13;10525114;28;20075;-74
2023/07/28 06:59:00;;;;;;;0.65;0.20;;;;;;;19.65;95.96;153639.13;10543039;28;20111;-73
2023/07/28 07:04:17;;;;;;;0.20;0.20;;;;;;;19.51;99.76;153602.69;10524894;28;20048;-74
2023/07/28 07:09:19;;;;;;;0.10;0.10;;;;;;;19.73;98.19;153659.91;10541022;28;20482;-73
2023/07/28 07:14:21;;;;;;;0.10;0.10;;;;;;;20.02;94.07;153734.03;10522961;28;20134;-74
2023/07/28 07:19:23;;;;;;;1.30;0.20;;;;;;;20.35;91.25;153818.50;10541567;28;20054;-74
2023/07/28 07:24:25;;;;;;;0.32;0.20;;;;;;;20.56;90.34;153870.56;10542402;28;20574;-74
2023/07/28 07:29:26;;;;;;;0.30;0.10;;;;;;;20.68;89.74;153900.50;10540754;28;20036;-74
2023/07/28 07:34:28;;;;;;;0.20;0.13;;;;;;;20.50;89.88;153855.00;10541112;28;20087;-74
2023/07/28 07:39:30;;;;;;;0.20;0.20;;;;;;;20.32;90.30;153810.72;10540261;28;20036;-74
2023/07/28 07:44:32;;;;;;;0.13;0.13;;;;;;;20.44;90.14;153840.59;10540111;28;20039;-74
2023/07/28 07:49:33;;;;;;;0.00;0.00;;;;;;;20.50;88.02;153855.00;10541726;28;20040;-74
2023/07/28 07:54:35;;;;;;;0.30;0.20;;;;;;;20.66;87.48;153896.56;10540254;28;20044;-73
2023/07/28 07:59:37;;;;;;;0.10;0.10;;;;;;;20.45;90.50;153843.19;10541109;28;20383;-75
2023/07/28 08:04:39;;;;;;;0.20;0.10;;;;;;;20.57;89.07;153874.47;10540535;28;20387;-73
2023/07/28 08:09:41;;;;;;;0.20;0.10;;;;;;;20.73;87.17;153914.78;10539690;28;20040;-73
2023/07/28 08:14:43;;;;;;;0.10;0.10;;;;;;;20.73;86.22;153914.78;10539702;28;20044;-73
2023/07/28 08:19:45;;;;;;;0.10;0.10;;;;;;;21.29;84.83;154056.53;10539681;28;20067;-74
2023/07/28 08:24:47;;;;;;;0.57;0.10;;;;;;;21.50;82.24;154111.25;10546709;28;20119;-75
2023/07/28 08:29:49;;;;;;;0.10;0.10;;;;;;;21.72;78.05;154165.91;10548552;28;20079;-73
2023/07/28 08:34:51;;;;;;;0.10;0.10;;;;;;;21.58;80.10;154130.78;10548179;28;20075;-73
2023/07/28 08:39:53;;;;;;;0.17;0.15;;;;;;;21.22;80.86;154038.34;10548332;28;20482;-74
2023/07/28 08:44:54;;;;;;;0.20;0.20;;;;;;;21.02;83.96;153988.91;10548571;28;20070;-73
2023/07/28 08:49:57;;;;;;;0.30;0.10;;;;;;;20.90;81.87;153959.00;10547577;28;20051;-73
2023/07/28 08:54:59;;;;;;;0.40;0.30;;;;;;;20.91;84.45;153960.31;10548520;28;20040;-73
2023/07/28 09:00:13;;;;;;;0.20;0.20;;;;;;;21.02;81.80;153987.59;10547527;28;20460;-73
2023/07/28 09:05:20;;;;;;;0.20;0.20;;;;;;;20.70;82.96;153906.97;10547232;28;20101;-72
2023/07/28 09:10:22;;;;;;;0.10;0.10;;;;;;;20.59;85.23;153878.38;10547055;28;20044;-73
2023/07/28 09:15:24;;;;;;;0.20;0.20;;;;;;;20.52;87.38;153861.47;10546221;28;20456;-73
2023/07/28 09:20:36;;;;;;;0.10;0.10;;;;;;;20.69;86.73;153904.38;10546325;28;20552;-73
2023/07/28 09:25:38;;;;;;;0.45;0.40;;;;;;;20.90;86.19;153957.72;10546513;28;20063;-73
2023/07/28 09:30:49;;;;;;;1.15;0.25;;;;;;;21.18;85.46;154029.25;10546823;28;20040;-73
2023/07/28 09:35:51;;;;;;;0.10;0.10;;;;;;;21.80;80.91;154186.72;10544697;28;20068;-73
2023/07/28 09:40:54;;;;;;;0.10;0.10;;;;;;;22.72;75.12;154422.41;10544733;28;20481;-73
2023/07/28 09:45:56;;;;;;;0.20;0.20;;;;;;;23.11;72.64;154521.44;10546020;28;20389;-73
2023/07/28 09:51:02;;;;;;;0.10;0.10;;;;;;;23.17;68.70;154538.34;10544157;28;20036;-73
2023/07/28 09:56:04;;;;;;;0.10;0.10;;;;;;;22.65;72.23;154404.16;10544186;28;20039;-73
2023/07/28 10:01:07;;;;;;;0.10;0.10;;;;;;;22.44;72.72;154350.75;10543937;28;20055;-73
2023/07/28 10:06:09;;;;;;;0.40;0.20;;;;;;;22.37;74.80;154333.84;10543386;28;20048;-73
2023/07/28 10:11:16;;;;;;;0.20;0.20;;;;;;;22.42;73.47;154345.56;10543019;28;20050;-73
2023/07/28 10:16:18;;;;;;;0.43;0.17;;;;;;;22.94;73.15;154478.44;10542905;28;20154;-73
2023/07/28 10:21:20;;;;;;;0.43;0.20;;;;;;;22.92;70.91;154473.22;10543335;28;20055;-73
2023/07/28 10:26:36;;;;;;;0.32;0.15;;;;;;;22.99;70.73;154490.16;10542998;28;20040;-73
2023/07/28 10:31:57;;;;;;;0.10;0.10;;;;;;;23.54;70.59;154630.81;10525573;28;20131;-74
2023/07/28 10:37:00;;;;;;;0.20;0.20;;;;;;;23.72;67.55;154676.47;10542722;28;20135;-74
2023/07/28 10:42:08;;;;;;;0.10;0.10;;;;;;;23.54;67.23;154632.13;10542431;28;20052;-73
2023/07/28 10:47:11;;;;;;;0.10;0.10;;;;;;;23.76;68.65;154686.91;10541829;28;20075;-72
2023/07/28 10:52:16;;;;;;;0.00;0.00;;;;;;;24.29;63.87;154823.72;10542787;28;20048;-74
2023/07/28 10:57:17;;;;;;;0.15;0.10;;;;;;;24.86;62.24;154968.47;10544562;28;20036;-74
2023/07/28 11:02:19;;;;;;;0.15;0.15;;;;;;;26.02;59.10;155264.66;10544642;28;20048;-76
2023/07/28 11:07:21;;;;;;;0.10;0.10;;;;;;;26.62;55.10;155420.00;10523041;28;20070;-75
2023/07/28 11:12:23;;;;;;;0.20;0.20;;;;;;;26.11;57.52;155289.44;10541953;28;20040;-75
2023/07/28 11:17:27;;;;;;;0.70;0.05;;;;;;;26.02;52.70;155264.66;10541937;28;20366;-76
2023/07/28 11:22:29;;;;;;;0.07;0.07;;;;;;;25.69;54.80;155181.13;10541257;28;20048;-76
2023/07/28 11:27:31;;;;;;;0.20;0.10;;;;;;;25.51;56.54;155135.47;10544906;28;20032;-76
2023/07/28 11:32:37;;;;;;;0.10;0.10;;;;;;;25.61;54.55;155161.53;10528062;28;20044;-78
2023/07/28 11:37:42;;;;;;;0.20;0.10;;;;;;;25.27;58.05;155072.84;10544927;28;20101;-78
2023/07/28 11:42:46;;;;;;;0.10;0.10;;;;;;;25.65;53.25;155170.69;10545016;28;20055;-77
2023/07/28 11:47:54;;;;;;;0.20;0.20;;;;;;;25.00;52.96;155004.97;10545133;28;20115;-77
2023/07/28 11:53:00;;;;;;;0.10;0.10;;;;;;;25.03;56.12;155011.53;10544170;28;20040;-77
2023/07/28 11:58:04;;;;;;;0.20;0.20;;;;;;;25.28;55.81;155076.78;10528623;28;20047;-77
2023/07/28 12:03:14;;;;;;;0.10;0.10;;;;;;;24.79;56.23;154951.56;10550292;28;20413;-77
2023/07/28 12:08:36;;;;;;;0.10;0.10;;;;;;;25.47;55.16;155125.03;10550844;28;20036;-77
2023/07/28 12:13:50;;;;;;;0.13;0.13;;;;;;;25.80;54.35;155209.84;10554807;28;20044;-77
2023/07/28 12:18:58;;;;;;;0.13;0.13;;;;;;;25.03;54.74;155011.53;10555663;28;20046;-78
2023/07/28 12:24:00;;;;;;;0.20;0.20;;;;;;;25.16;57.52;155045.47;10551198;28;20559;-75
2023/07/28 12:29:05;;;;;;;0.47;0.20;;;;;;;24.83;56.75;154960.66;10533212;28;20032;-75
2023/07/28 12:34:10;;;;;;;0.30;0.10;;;;;;;25.52;56.73;155138.06;10551419;28;20063;-75
2023/07/28 12:39:25;;;;;;;0.20;0.20;;;;;;;26.20;53.89;155310.31;10552076;28;20044;-75
2023/07/28 12:44:30;;;;;;;0.33;0.20;;;;;;;25.61;50.73;155161.53;10548916;28;20044;-75
2023/07/28 12:49:35;;;;;;;0.32;0.20;;;;;;;25.31;53.76;155084.59;10532307;28;20032;-75
2023/07/28 12:54:39;;;;;;;0.32;0.10;;;;;;;25.07;55.55;155023.25;10548696;28;20517;-74
2023/07/28 12:59:44;;;;;;;0.20;0.20;;;;;;;24.61;56.43;154904.59;10547810;28;20036;-75
2023/07/28 13:04:49;;;;;;;0.60;0.30;;;;;;;25.15;57.87;155042.88;10547679;28;20051;-75
2023/07/28 13:09:51;;;;;;;0.40;0.30;;;;;;;25.62;54.85;155162.84;10546522;28;20066;-76
2023/07/28 13:14:52;;;;;;;0.10;0.10;;;;;;;25.78;53.91;155203.34;10546917;28;20509;-75
2023/07/28 13:19:56;;;;;;;0.10;0.10;;;;;;;25.98;52.41;155255.50;10546151;28;20075;-76
2023/07/28 13:24:59;;;;;;;0.27;0.23;;;;;;;25.97;52.22;155252.91;10548610;28;20046;-75
2023/07/28 13:30:04;;;;;;;0.20;0.20;;;;;;;26.25;51.37;155324.66;10546957;28;20537;-75
2023/07/28 13:35:07;;;;;;;3.25;0.57;;;;;;;26.30;51.65;155337.75;10546455;28;20040;-75
2023/07/28 13:40:09;;;;;;;0.30;0.20;;;;;;;26.37;51.00;155354.69;10548895;28;20096;-75
2023/07/28 13:45:14;;;;;;;0.10;0.10;;;;;;;26.81;50.85;155467.00;10547684;28;20402;-74
2023/07/28 13:50:15;;;;;;;0.10;0.10;;;;;;;26.82;51.05;155469.59;10546967;28;20036;-74
2023/07/28 13:55:17;;;;;;;0.28;0.28;;;;;;;27.15;50.94;155554.53;10545499;28;20040;-74
2023/07/28 14:00:19;;;;;;;0.22;0.20;;;;;;;27.09;52.10;155538.84;10546391;28;20089;-74
2023/07/28 14:05:22;;;;;;;0.10;0.10;;;;;;;26.76;49.33;155453.94;10540612;28;20036;-75
2023/07/28 14:10:24;;;;;;;0.45;0.20;;;;;;;26.53;50.39;155396.53;10519147;28;20058;-75
2023/07/28 14:15:26;;;;;;;0.20;0.20;;;;;;;26.69;49.78;155436.94;10527960;28;20048;-75
2023/07/28 14:20:28;;;;;;;0.13;0.10;;;;;;;26.34;50.59;155348.19;10509037;28;20043;-74
2023/07/28 14:25:30;;;;;;;0.50;0.20;;;;;;;26.74;51.12;155448.69;10507606;28;20044;-75
2023/07/28 14:30:32;;;;;;;0.20;0.20;;;;;;;27.09;48.61;155538.84;10483638;28;20477;-74
2023/07/28 14:35:34;;;;;;;0.10;0.10;;;;;;;27.06;49.12;155530.97;10503352;28;20040;-75
2023/07/28 14:40:36;;;;;;;0.10;0.10;;;;;;;26.61;48.38;155417.41;10486811;28;20055;-74
2023/07/28 14:45:38;;;;;;;3.88;0.10;;;;;;;26.47;50.08;155380.84;10506445;28;20071;-73
2023/07/28 14:50:40;;;;;;;0.40;0.25;;;;;;;25.82;50.92;155213.78;10506707;28;20059;-73
2023/07/28 14:55:42;;;;;;;0.20;0.20;;;;;;;25.60;52.95;155157.66;10504107;28;20047;-73
2023/07/28 15:00:44;;;;;;;0.40;0.20;;;;;;;25.31;56.31;155084.59;10507166;28;20041;-73
2023/07/28 15:05:46;;;;;;;1.10;0.40;;;;;;;23.99;73.34;154746.81;10503918;28;20041;-71
2023/07/28 15:10:48;;;;;;;1.48;0.45;;;;;;;22.95;85.09;154479.75;10503032;28;20044;-71
2023/07/28 15:15:50;;;;;;;0.68;0.40;;;;;;;22.34;92.00;154324.72;10505283;28;20552;-70
2023/07/28 15:20:55;;;;;;;0.90;0.40;;;;;;;22.17;100.00;154281.75;10484340;28;20405;-71
2023/07/28 15:25:58;;;;;;;1.77;0.70;;;;;;;22.41;97.37;154342.97;10485957;28;20045;-72
2023/07/28 15:31:00;;;;;;;1.48;0.60;;;;;;;22.78;97.17;154438.00;10504648;28;20090;-71
2023/07/28 15:36:02;;;;;;;1.10;0.50;;;;;;;23.50;88.81;154620.41;10506094;28;20051;-71
2023/07/28 15:41:05;;;;;;;0.43;0.43;;;;;;;24.07;85.47;154767.69;10504190;28;20436;-71
2023/07/28 15:46:07;;;;;;;0.68;0.40;;;;;;;24.88;72.73;154973.69;10504969;28;20068;-70
2023/07/28 15:51:09;;;;;;;0.60;0.32;;;;;;;25.32;67.48;155085.88;10482113;28;20083;-71
2023/07/28 15:56:11;;;;;;;1.05;0.40;;;;;;;25.26;70.26;155071.53;10504714;28;20049;-72
2023/07/28 16:01:13;;;;;;;0.52;0.30;;;;;;;25.34;69.45;155092.41;10501058;28;20044;-71
2023/07/28 16:06:15;;;;;;;0.35;0.30;;;;;;;24.43;75.10;154858.97;10482248;28;20128;-70
2023/07/28 16:11:17;;;;;;;0.30;0.30;;;;;;;23.85;83.80;154710.34;10501409;28;20064;-71
2023/07/28 16:16:20;;;;;;;0.65;0.43;;;;;;;23.79;81.14;154696.03;10506566;28;20052;-72
2023/07/28 16:21:22;;;;;;;5.05;0.52;;;;;;;23.47;82.84;154612.59;10510389;28;20051;-70
2023/07/28 16:26:25;;;;;;;0.32;0.30;;;;;;;23.22;86.75;154548.75;10511236;28;20064;-72
2023/07/28 16:31:27;;;;;;;0.65;0.47;;;;;;;23.33;85.64;154577.41;10509611;28;20051;-72
2023/07/28 16:36:29;;;;;;;1.08;0.30;;;;;;;23.37;85.47;154589.16;10508036;28;20053;-72
2023/07/28 16:41:32;;;;;;;0.40;0.40;;;;;;;23.32;88.16;154574.81;10507080;28;20450;-71
2023/07/28 16:46:34;;;;;;;0.40;0.40;;;;;;;23.35;83.08;154582.63;10493028;28;20051;-72
2023/07/28 16:51:37;;;;;;;0.70;0.47;;;;;;;23.29;83.76;154567.00;10510372;28;20479;-73
2023/07/28 16:56:41;;;;;;;0.40;0.40;;;;;;;22.98;87.89;154488.88;10507376;28;20036;-71
2023/07/28 17:01:43;;;;;;;0.35;0.30;;;;;;;22.96;87.71;154482.34;10510089;28;20082;-71
2023/07/28 17:06:45;;;;;;;0.40;0.40;;;;;;;23.04;87.96;154503.19;10527615;28;20122;-71
2023/07/28 17:11:47;;;;;;;0.40;0.40;;;;;;;22.89;86.54;154465.38;10549413;28;20097;-72
2023/07/28 17:16:49;;;;;;;0.35;0.30;;;;;;;22.98;88.63;154487.56;10549963;28;20044;-72
2023/07/28 17:21:51;;;;;;;1.10;0.70;;;;;;;22.75;92.82;154428.88;10538085;28;20076;-72
2023/07/28 17:26:53;;;;;;;1.60;0.50;;;;;;;22.80;88.86;154443.25;10515183;28;20136;-70
2023/07/28 17:31:55;;;;;;;0.52;0.40;;;;;;;23.02;85.72;154499.28;10548921;28;20036;-72
2023/07/28 17:36:57;;;;;;;0.38;0.38;;;;;;;23.14;82.32;154530.50;10549262;28;20036;-71
2023/07/28 17:41:59;;;;;;;0.35;0.25;;;;;;;23.25;76.84;154556.59;10547261;28;20044;-71
2023/07/28 17:47:01;;;;;;;0.40;0.40;;;;;;;23.16;78.04;154534.44;10547726;28;20040;-72
2023/07/28 17:52:06;;;;;;;0.50;0.50;;;;;;;23.06;78.85;154508.38;10555513;28;20571;-71
2023/07/28 17:57:08;;;;;;;0.47;0.30;;;;;;;22.98;79.56;154487.56;10555147;28;20044;-72
2023/07/28 18:02:10;;;;;;;0.30;0.30;;;;;;;22.93;80.87;154475.81;10553253;28;20100;-72
2023/07/28 18:07:12;;;;;;;0.30;0.30;;;;;;;22.65;82.97;154405.44;10550306;28;20066;-72
2023/07/28 18:12:14;;;;;;;0.40;0.40;;;;;;;22.61;82.99;154395.03;10550524;28;20044;-72
2023/07/28 18:17:20;;;;;;;0.38;0.30;;;;;;;22.58;83.43;154387.25;10552655;28;20104;-72
2023/07/28 18:22:23;;;;;;;0.30;0.30;;;;;;;22.51;83.97;154369.00;10553463;28;20036;-73
2023/07/28 18:27:25;;;;;;;0.50;0.30;;;;;;;22.44;85.70;154350.75;10552227;28;20451;-71
2023/07/28 18:32:27;;;;;;;0.65;0.30;;;;;;;22.38;81.42;154336.44;10546922;28;20051;-71
2023/07/28 18:37:29;;;;;;;0.40;0.40;;;;;;;22.34;82.44;154326.03;10548413;28;20093;-73
2023/07/28 18:42:32;;;;;;;0.77;0.50;;;;;;;22.19;82.55;154285.72;10550336;28;20047;-74
2023/07/28 18:47:35;;;;;;;0.50;0.40;;;;;;;22.07;82.33;154257.00;10529666;28;20498;-73
2023/07/28 18:52:39;;;;;;;0.40;0.40;;;;;;;22.01;82.21;154241.41;10516183;28;20098;-74
2023/07/28 18:57:41;;;;;;;0.50;0.50;;;;;;;21.81;84.35;154189.31;10549209;28;20044;-73
2023/07/28 19:02:43;;;;;;;0.40;0.40;;;;;;;21.71;83.50;154164.59;10523302;28;20044;-74
2023/07/28 19:07:46;;;;;;;0.63;0.50;;;;;;;21.73;83.10;154169.78;10514986;28;20075;-74
2023/07/28 19:12:48;;;;;;;0.43;0.43;;;;;;;21.55;83.73;154124.25;10508264;28;20051;-73
2023/07/28 19:17:51;;;;;;;0.57;0.40;;;;;;;21.43;83.91;154093.06;10509226;28;20096;-73
2023/07/28 19:22:54;;;;;;;0.50;0.50;;;;;;;21.35;84.20;154073.53;10501355;28;20442;-73
2023/07/28 19:27:57;;;;;;;0.55;0.40;;;;;;;21.40;82.71;154086.53;10515706;28;20452;-74
2023/07/28 19:32:59;;;;;;;0.68;0.55;;;;;;;21.29;84.26;154057.84;10508939;28;20090;-74
2023/07/28 19:38:01;;;;;;;0.40;0.30;;;;;;;21.29;83.77;154057.84;10506738;28;20055;-74
2023/07/28 19:43:07;;;;;;;0.77;0.50;;;;;;;21.22;84.66;154038.34;10505901;28;20045;-74
2023/07/28 19:48:09;;;;;;;0.70;0.50;;;;;;;21.42;82.70;154091.72;10505902;28;20383;-74
2023/07/28 19:53:11;;;;;;;0.70;0.70;;;;;;;21.14;86.09;154018.84;10536519;28;20048;-74
2023/07/28 19:58:14;;;;;;;1.17;1.08;;;;;;;21.04;86.35;153992.84;10545543;28;20462;-74
2023/07/28 20:03:16;;;;;;;1.02;0.60;;;;;;;20.87;88.24;153949.91;10545505;28;20093;-74
2023/07/28 20:08:18;;;;;;;1.73;0.82;;;;;;;20.65;92.94;153893.97;10545350;28;20440;-74
2023/07/28 20:13:20;;;;;;;0.88;0.70;;;;;;;20.81;88.86;153935.59;10544537;28;20060;-73
2023/07/28 20:18:22;;;;;;;1.58;0.90;;;;;;;20.98;87.19;153978.47;10536231;28;20070;-73
2023/07/28 20:23:24;;;;;;;0.57;0.55;;;;;;;21.07;86.07;154000.59;10514402;28;20056;-73
2023/07/28 20:28:26;;;;;;;2.15;1.95;;;;;;;21.12;85.17;154014.94;10512119;28;20032;-74
2023/07/28 20:33:28;;;;;;;3.28;2.55;;;;;;;20.94;87.08;153968.13;10512934;28;20040;-74
2023/07/28 20:38:31;;;;;;;2.88;2.08;;;;;;;20.94;88.23;153966.78;10495950;28;20055;-73
2023/07/28 20:43:33;;;;;;;1.75;1.50;;;;;;;21.06;86.35;153998.00;10515578;28;20494;-73
2023/07/28 20:48:35;;;;;;;1.90;1.00;;;;;;;21.00;87.42;153983.72;10514522;28;20094;-73
2023/07/28 20:53:38;;;;;;;2.25;0.90;;;;;;;20.92;88.34;153964.19;10516361;28;20040;-74
2023/07/28 20:58:41;;;;;;;0.75;0.50;;;;;;;20.96;87.75;153973.31;10514701;28;20520;-73
2023/07/28 21:03:43;;;;;;;0.80;0.65;;;;;;;20.98;87.83;153977.19;10496243;28;20053;-73
2023/07/28 21:08:45;;;;;;;0.50;0.50;;;;;;;20.89;88.86;153955.06;10512682;28;20072;-73
2023/07/28 21:13:48;;;;;;;0.70;0.50;;;;;;;20.95;88.21;153970.72;10513083;28;20064;-73
2023/07/28 21:18:50;;;;;;;0.60;0.60;;;;;;;20.76;90.33;153922.59;10512523;28;20528;-74
2023/07/28 21:23:52;;;;;;;0.52;0.30;;;;;;;20.71;90.48;153909.56;10511569;28;20072;-75
2023/07/28 21:28:54;;;;;;;0.57;0.55;;;;;;;20.49;92.78;153853.66;10512538;28;20060;-73
2023/07/28 21:33:58;;;;;;;0.68;0.50;;;;;;;20.69;89.66;153903.09;10507409;28;20047;-73
2023/07/28 21:39:01;;;;;;;0.55;0.55;;;;;;;20.56;90.59;153870.56;10506817;28;20114;-74
2023/07/28 21:44:03;;;;;;;0.40;0.40;;;;;;;20.65;89.68;153893.97;10505643;28;20114;-74
2023/07/28 21:49:04;;;;;;;0.40;0.40;;;;;;;20.85;87.90;153944.66;10505852;28;20067;-74
2023/07/28 21:54:06;;;;;;;0.50;0.50;;;;;;;21.02;86.32;153988.91;10504801;28;20448;-74
2023/07/28 21:59:08;;;;;;;1.08;0.50;;;;;;;20.97;87.33;153974.59;10504487;28;20086;-73
2023/07/28 22:04:10;;;;;;;0.50;0.50;;;;;;;21.09;86.03;154007.13;10507027;28;20078;-73
2023/07/28 22:09:12;;;;;;;1.50;0.68;;;;;;;21.09;86.53;154005.84;10505929;28;20498;-74
2023/07/28 22:14:16;;;;;;;0.70;0.70;;;;;;;21.02;86.89;153988.91;10506871;28;20046;-74
2023/07/28 22:19:18;;;;;;;0.65;0.50;;;;;;;21.07;85.91;154001.94;10505086;28;20524;-72
2023/07/28 22:24:19;;;;;;;0.52;0.52;;;;;;;20.89;87.87;153956.41;10504757;28;20127;-74
2023/07/28 22:29:21;;;;;;;0.90;0.80;;;;;;;20.96;86.75;153973.31;10504007;28;20097;-73
2023/07/28 22:34:24;;;;;;;1.23;0.70;;;;;;;20.81;88.03;153934.31;10503654;28;20052;-73
2023/07/28 22:39:26;;;;;;;0.63;0.63;;;;;;;20.78;88.29;153926.50;10484941;28;20055;-74
2023/07/28 22:44:28;;;;;;;0.60;0.60;;;;;;;20.81;87.64;153934.31;10505068;28;20044;-73
2023/07/28 22:49:30;;;;;;;0.75;0.75;;;;;;;20.70;88.89;153906.97;10504143;28;20037;-73
2023/07/28 22:54:32;;;;;;;0.82;0.60;;;;;;;20.63;89.72;153888.78;10504051;28;20510;-73
2023/07/28 22:59:33;;;;;;;0.70;0.60;;;;;;;20.56;89.40;153871.88;10504415;28;20072;-74
2023/07/28 23:04:35;;;;;;;0.70;0.60;;;;;;;20.53;90.14;153862.75;10502720;28;20036;-74
2023/07/28 23:09:42;;;;;;;0.60;0.60;;;;;;;20.57;89.73;153874.47;10502333;28;20106;-73